Valmeyer, Illinois
Current Conditions -  °F | °C
As of 2:03 AM on Thursday 27 Nov 2014 (Local Time) from KCPS Reporting Station
Haze Haze  
Wind Chill: 23°   Ceiling: 1100
Heat Index: 32°   Visibility: 5mi
Dew Point: 29°   Wind: 12mph
Humidity: 88%   Direction: 340°NNW
Pressure: 30.31"   Gusts: NA
Location:  38.31°N, 90.28°W
Report Text: KCPS 270803Z AUTO 34010KT 5SM BR BKN011 OVC020 00/M02 A3031 RMK AO2 T00001017 TSNO
Loading
Personal Weather Stations






























Interactive Weather Map New forecast layout! Learn more

10-Day Weather Forecast

Advertisements
Track Severe Weather on mobile